sensor_id;sensor_type;location;lat;lon;timestamp;pressure;altitude;pressure_sealevel;temperature;humidity
76827;BME280;65788;52.284;20.890;2023-07-09T00:01:15;100817.48;;;24.18;42.20
76827;BME280;65788;52.284;20.890;2023-07-09T00:03:45;100817.95;;;24.32;41.77
76827;BME280;65788;52.284;20.890;2023-07-09T00:06:13;100823.65;;;22.87;44.60
76827;BME280;65788;52.284;20.890;2023-07-09T00:08:44;100824.21;;;23.29;44.39
76827;BME280;65788;52.284;20.890;2023-07-09T00:11:15;100826.17;;;23.71;43.06
76827;BME280;65788;52.284;20.890;2023-07-09T00:13:42;100826.89;;;23.64;43.46
76827;BME280;65788;52.284;20.890;2023-07-09T00:16:15;100829.20;;;23.69;43.11
76827;BME280;65788;52.284;20.890;2023-07-09T00:18:43;100830.55;;;23.01;44.67
76827;BME280;65788;52.284;20.890;2023-07-09T00:21:10;100827.48;;;23.47;43.88
76827;BME280;65788;52.284;20.890;2023-07-09T00:23:36;100826.53;;;23.85;43.07
76827;BME280;65788;52.284;20.890;2023-07-09T00:26:10;100825.55;;;23.91;42.90
76827;BME280;65788;52.284;20.890;2023-07-09T00:28:43;100828.01;;;23.77;43.28
76827;BME280;65788;52.284;20.890;2023-07-09T00:31:12;100825.31;;;23.31;44.24
76827;BME280;65788;52.284;20.890;2023-07-09T00:33:45;100827.34;;;23.93;42.96
76827;BME280;65788;52.284;20.890;2023-07-09T00:36:27;100827.95;;;24.19;42.42
76827;BME280;65788;52.284;20.890;2023-07-09T00:38:55;100830.89;;;24.23;42.26
76827;BME280;65788;52.284;20.890;2023-07-09T00:41:27;100833.63;;;23.57;43.54
76827;BME280;65788;52.284;20.890;2023-07-09T00:43:54;100837.10;;;23.81;43.04
76827;BME280;65788;52.284;20.890;2023-07-09T00:49:05;100836.23;;;24.12;42.52
76827;BME280;65788;52.284;20.890;2023-07-09T00:51:38;100836.64;;;24.35;42.18
76827;BME280;65788;52.284;20.890;2023-07-09T00:54:35;100834.36;;;24.48;41.93
76827;BME280;65788;52.284;20.890;2023-07-09T00:57:14;100832.04;;;24.52;41.78
76827;BME280;65788;52.284;20.890;2023-07-09T00:59:53;100830.04;;;24.34;42.08
76827;BME280;65788;52.284;20.890;2023-07-09T01:02:23;100828.84;;;24.38;41.96
76827;BME280;65788;52.284;20.890;2023-07-09T01:04:55;100831.05;;;23.65;43.14
76827;BME280;65788;52.284;20.890;2023-07-09T01:07:28;100826.56;;;23.78;43.10
76827;BME280;65788;52.284;20.890;2023-07-09T01:09:55;100826.78;;;24.07;42.45
76827;BME280;65788;52.284;20.890;2023-07-09T01:12:23;100828.90;;;23.86;42.86
76827;BME280;65788;52.284;20.890;2023-07-09T01:14:52;100827.52;;;24.30;42.26
76827;BME280;65788;52.284;20.890;2023-07-09T01:17:20;100832.25;;;24.44;42.03
76827;BME280;65788;52.284;20.890;2023-07-09T01:19:50;100830.77;;;24.27;42.17
76827;BME280;65788;52.284;20.890;2023-07-09T01:22:19;100831.98;;;24.52;41.83
76827;BME280;65788;52.284;20.890;2023-07-09T01:25:02;100831.59;;;24.60;41.78
76827;BME280;65788;52.284;20.890;2023-07-09T01:27:35;100827.58;;;23.94;42.65
76827;BME280;65788;52.284;20.890;2023-07-09T01:30:17;100829.75;;;24.17;42.45
76827;BME280;65788;52.284;20.890;2023-07-09T01:32:50;100830.24;;;24.49;41.97
76827;BME280;65788;52.284;20.890;2023-07-09T01:35:20;100833.61;;;24.17;42.20
76827;BME280;65788;52.284;20.890;2023-07-09T01:37:48;100838.62;;;23.59;43.46
76827;BME280;65788;52.284;20.890;2023-07-09T01:40:18;100835.70;;;24.13;42.56
76827;BME280;65788;52.284;20.890;2023-07-09T01:42:45;100833.46;;;24.43;42.08
76827;BME280;65788;52.284;20.890;2023-07-09T01:45:13;100833.57;;;23.75;43.00
76827;BME280;65788;52.284;20.890;2023-07-09T01:47:42;100837.75;;;22.86;45.03
76827;BME280;65788;52.284;20.890;2023-07-09T01:50:10;100835.77;;;23.53;43.89
76827;BME280;65788;52.284;20.890;2023-07-09T01:52:40;100835.80;;;23.84;43.08
76827;BME280;65788;52.284;20.890;2023-07-09T01:55:11;100837.38;;;23.96;42.80
76827;BME280;65788;52.284;20.890;2023-07-09T01:57:38;100837.82;;;23.37;43.83
76827;BME280;65788;52.284;20.890;2023-07-09T02:00:07;100842.61;;;23.00;44.79
76827;BME280;65788;52.284;20.890;2023-07-09T02:02:37;100840.38;;;23.78;43.32
76827;BME280;65788;52.284;20.890;2023-07-09T02:05:06;100839.43;;;23.78;43.01
76827;BME280;65788;52.284;20.890;2023-07-09T02:07:33;100847.60;;;22.71;45.17
76827;BME280;65788;52.284;20.890;2023-07-09T02:10:01;100850.00;;;22.37;46.21
76827;BME280;65788;52.284;20.890;2023-07-09T02:12:28;100843.56;;;23.28;44.58
76827;BME280;65788;52.284;20.890;2023-07-09T02:14:54;100839.14;;;23.85;43.35
76827;BME280;65788;52.284;20.890;2023-07-09T02:17:21;100843.49;;;24.07;42.87
76827;BME280;65788;52.284;20.890;2023-07-09T02:19:48;100840.51;;;24.20;42.57
76827;BME280;65788;52.284;20.890;2023-07-09T02:22:15;100842.63;;;24.15;42.55
76827;BME280;65788;52.284;20.890;2023-07-09T02:24:44;100845.20;;;24.20;42.52
76827;BME280;65788;52.284;20.890;2023-07-09T02:27:14;100846.47;;;24.29;42.19
76827;BME280;65788;52.284;20.890;2023-07-09T02:29:42;100845.65;;;24.27;42.20
76827;BME280;65788;52.284;20.890;2023-07-09T02:32:09;100848.59;;;24.27;42.08
76827;BME280;65788;52.284;20.890;2023-07-09T02:34:36;100846.34;;;24.28;42.11
76827;BME280;65788;52.284;20.890;2023-07-09T02:37:03;100843.16;;;24.28;42.05
76827;BME280;65788;52.284;20.890;2023-07-09T02:39:30;100848.58;;;24.28;41.96
76827;BME280;65788;52.284;20.890;2023-07-09T02:41:57;100853.16;;;24.26;41.80
76827;BME280;65788;52.284;20.890;2023-07-09T02:44:23;100849.80;;;24.22;41.83
76827;BME280;65788;52.284;20.890;2023-07-09T02:46:51;100850.84;;;24.24;41.75
76827;BME280;65788;52.284;20.890;2023-07-09T02:49:18;100845.43;;;24.28;41.77
76827;BME280;65788;52.284;20.890;2023-07-09T02:51:45;100847.98;;;24.24;41.58
76827;BME280;65788;52.284;20.890;2023-07-09T02:54:12;100855.60;;;24.18;41.79
76827;BME280;65788;52.284;20.890;2023-07-09T02:56:39;100854.96;;;24.10;41.95
76827;BME280;65788;52.284;20.890;2023-07-09T02:59:05;100855.70;;;24.15;41.87
76827;BME280;65788;52.284;20.890;2023-07-09T03:01:32;100856.22;;;24.13;41.72
76827;BME280;65788;52.284;20.890;2023-07-09T03:04:00;100858.41;;;24.13;41.79
76827;BME280;65788;52.284;20.890;2023-07-09T03:06:31;100859.21;;;24.00;41.89
76827;BME280;65788;52.284;20.890;2023-07-09T03:09:00;100861.27;;;23.78;42.32
76827;BME280;65788;52.284;20.890;2023-07-09T03:11:29;100865.04;;;23.57;42.84
76827;BME280;65788;52.284;20.890;2023-07-09T03:14:00;100865.33;;;23.77;42.64
76827;BME280;65788;52.284;20.890;2023-07-09T03:16:29;100862.11;;;23.62;42.85
76827;BME280;65788;52.284;20.890;2023-07-09T03:18:56;100863.98;;;23.68;42.76
76827;BME280;65788;52.284;20.890;2023-07-09T03:21:26;100864.17;;;23.80;42.61
76827;BME280;65788;52.284;20.890;2023-07-09T03:23:55;100866.03;;;23.52;43.12
76827;BME280;65788;52.284;20.890;2023-07-09T03:26:22;100867.71;;;23.43;43.36
76827;BME280;65788;52.284;20.890;2023-07-09T03:28:49;100868.88;;;23.75;42.83
76827;BME280;65788;52.284;20.890;2023-07-09T03:31:16;100870.85;;;23.70;42.84
76827;BME280;65788;52.284;20.890;2023-07-09T03:33:42;100871.17;;;23.71;42.95
76827;BME280;65788;52.284;20.890;2023-07-09T03:36:09;100874.67;;;23.46;43.30
76827;BME280;65788;52.284;20.890;2023-07-09T03:38:36;100878.66;;;23.35;43.66
76827;BME280;65788;52.284;20.890;2023-07-09T03:41:05;100874.64;;;23.59;43.19
76827;BME280;65788;52.284;20.890;2023-07-09T03:43:32;100880.26;;;23.62;43.30
76827;BME280;65788;52.284;20.890;2023-07-09T03:45:59;100881.45;;;23.69;42.98
76827;BME280;65788;52.284;20.890;2023-07-09T03:48:26;100882.65;;;23.61;43.25
76827;BME280;65788;52.284;20.890;2023-07-09T03:50:54;100886.08;;;23.86;42.65
76827;BME280;65788;52.284;20.890;2023-07-09T03:53:21;100878.79;;;23.66;42.90
76827;BME280;65788;52.284;20.890;2023-07-09T03:55:52;100882.60;;;23.72;42.68
76827;BME280;65788;52.284;20.890;2023-07-09T03:58:19;100881.92;;;23.77;42.61
76827;BME280;65788;52.284;20.890;2023-07-09T04:00:46;100887.91;;;23.75;42.56
76827;BME280;65788;52.284;20.890;2023-07-09T04:03:13;100884.80;;;23.76;42.41
76827;BME280;65788;52.284;20.890;2023-07-09T04:05:40;100881.70;;;23.67;42.78
76827;BME280;65788;52.284;20.890;2023-07-09T04:08:07;100883.48;;;23.91;42.25
76827;BME280;65788;52.284;20.890;2023-07-09T04:10:34;100888.95;;;23.97;42.01
76827;BME280;65788;52.284;20.890;2023-07-09T04:13:01;100888.36;;;23.85;42.07
76827;BME280;65788;52.284;20.890;2023-07-09T04:15:29;100885.39;;;23.91;41.92
76827;BME280;65788;52.284;20.890;2023-07-09T04:17:56;100886.80;;;23.79;42.08
76827;BME280;65788;52.284;20.890;2023-07-09T04:20:23;100885.34;;;23.57;42.37
76827;BME280;65788;52.284;20.890;2023-07-09T04:22:50;100889.70;;;23.73;42.18
76827;BME280;65788;52.284;20.890;2023-07-09T04:25:17;100895.09;;;23.63;42.22
76827;BME280;65788;52.284;20.890;2023-07-09T04:27:44;100899.96;;;23.36;42.71
76827;BME280;65788;52.284;20.890;2023-07-09T04:30:13;100896.20;;;23.25;42.86
76827;BME280;65788;52.284;20.890;2023-07-09T04:32:43;100897.77;;;23.44;42.47
76827;BME280;65788;52.284;20.890;2023-07-09T04:35:12;100904.23;;;23.21;42.75
76827;BME280;65788;52.284;20.890;2023-07-09T04:37:40;100906.54;;;23.19;42.89
76827;BME280;65788;52.284;20.890;2023-07-09T04:40:08;100908.52;;;23.40;42.58
76827;BME280;65788;52.284;20.890;2023-07-09T04:42:38;100905.78;;;23.57;42.25
76827;BME280;65788;52.284;20.890;2023-07-09T04:45:08;100901.34;;;23.64;42.12
76827;BME280;65788;52.284;20.890;2023-07-09T04:47:36;100907.83;;;23.46;42.46
76827;BME280;65788;52.284;20.890;2023-07-09T04:50:06;100906.62;;;23.51;42.73
76827;BME280;65788;52.284;20.890;2023-07-09T04:52:34;100911.34;;;23.31;43.08
76827;BME280;65788;52.284;20.890;2023-07-09T04:55:05;100912.94;;;23.36;42.85
76827;BME280;65788;52.284;20.890;2023-07-09T04:57:34;100916.09;;;23.43;42.75
76827;BME280;65788;52.284;20.890;2023-07-09T05:00:02;100914.13;;;23.68;42.45
76827;BME280;65788;52.284;20.890;2023-07-09T05:02:31;100911.00;;;23.78;42.52
76827;BME280;65788;52.284;20.890;2023-07-09T05:04:58;100910.33;;;23.77;42.34
76827;BME280;65788;52.284;20.890;2023-07-09T05:07:26;100906.92;;;23.75;42.45
76827;BME280;65788;52.284;20.890;2023-07-09T05:09:54;100911.77;;;23.45;42.72
76827;BME280;65788;52.284;20.890;2023-07-09T05:12:21;100912.73;;;23.27;43.01
76827;BME280;65788;52.284;20.890;2023-07-09T05:14:49;100911.11;;;23.25;43.08
76827;BME280;65788;52.284;20.890;2023-07-09T05:17:16;100913.25;;;23.46;42.75
76827;BME280;65788;52.284;20.890;2023-07-09T05:19:43;100911.71;;;23.70;42.30
76827;BME280;65788;52.284;20.890;2023-07-09T05:22:10;100914.78;;;23.73;42.32
76827;BME280;65788;52.284;20.890;2023-07-09T05:24:38;100917.98;;;23.74;42.38
76827;BME280;65788;52.284;20.890;2023-07-09T05:27:05;100923.33;;;23.48;42.70
76827;BME280;65788;52.284;20.890;2023-07-09T05:29:32;100930.50;;;23.68;42.36
76827;BME280;65788;52.284;20.890;2023-07-09T05:31:59;100935.13;;;23.49;42.57
76827;BME280;65788;52.284;20.890;2023-07-09T05:34:26;100931.38;;;23.64;42.44
76827;BME280;65788;52.284;20.890;2023-07-09T05:36:53;100929.87;;;23.68;42.22
76827;BME280;65788;52.284;20.890;2023-07-09T05:39:20;100927.45;;;23.51;42.44
76827;BME280;65788;52.284;20.890;2023-07-09T05:41:48;100930.06;;;23.72;41.95
76827;BME280;65788;52.284;20.890;2023-07-09T05:44:15;100924.67;;;23.59;41.78
76827;BME280;65788;52.284;20.890;2023-07-09T05:46:41;100930.70;;;23.61;41.77
76827;BME280;65788;52.284;20.890;2023-07-09T05:49:09;100927.02;;;23.64;41.53
76827;BME280;65788;52.284;20.890;2023-07-09T05:51:37;100925.95;;;23.51;41.89
76827;BME280;65788;52.284;20.890;2023-07-09T05:54:06;100925.23;;;23.68;41.93
76827;BME280;65788;52.284;20.890;2023-07-09T05:56:41;100926.59;;;23.69;41.80
76827;BME280;65788;52.284;20.890;2023-07-09T05:59:07;100933.08;;;23.65;41.72
76827;BME280;65788;52.284;20.890;2023-07-09T06:01:34;100937.77;;;23.65;41.52
76827;BME280;65788;52.284;20.890;2023-07-09T06:04:01;100937.89;;;23.66;41.39
76827;BME280;65788;52.284;20.890;2023-07-09T06:06:28;100936.02;;;23.79;41.29
76827;BME280;65788;52.284;20.890;2023-07-09T06:08:55;100935.87;;;23.77;41.44
76827;BME280;65788;52.284;20.890;2023-07-09T06:11:21;100941.91;;;23.78;41.32
76827;BME280;65788;52.284;20.890;2023-07-09T06:13:48;100936.83;;;23.62;41.43
76827;BME280;65788;52.284;20.890;2023-07-09T06:16:15;100937.85;;;23.65;41.36
76827;BME280;65788;52.284;20.890;2023-07-09T06:18:42;100933.23;;;23.61;41.47
76827;BME280;65788;52.284;20.890;2023-07-09T06:21:09;100926.67;;;23.76;41.17
76827;BME280;65788;52.284;20.890;2023-07-09T06:23:38;100930.02;;;23.71;41.26
76827;BME280;65788;52.284;20.890;2023-07-09T06:26:06;100930.52;;;23.78;41.14
76827;BME280;65788;52.284;20.890;2023-07-09T06:28:33;100930.06;;;23.89;40.98
76827;BME280;65788;52.284;20.890;2023-07-09T06:31:00;100926.95;;;23.94;40.96
76827;BME280;65788;52.284;20.890;2023-07-09T06:33:27;100924.85;;;23.67;41.36
76827;BME280;65788;52.284;20.890;2023-07-09T06:35:58;100927.53;;;23.48;41.88
76827;BME280;65788;52.284;20.890;2023-07-09T06:38:26;100933.33;;;23.37;42.35
76827;BME280;65788;52.284;20.890;2023-07-09T06:40:53;100933.72;;;23.82;41.43
76827;BME280;65788;52.284;20.890;2023-07-09T06:43:20;100934.94;;;23.94;41.17
76827;BME280;65788;52.284;20.890;2023-07-09T06:45:58;100939.20;;;23.85;41.56
76827;BME280;65788;52.284;20.890;2023-07-09T06:48:27;100949.73;;;23.64;42.61
76827;BME280;65788;52.284;20.890;2023-07-09T06:50:55;100949.45;;;23.87;42.80
76827;BME280;65788;52.284;20.890;2023-07-09T06:53:24;100948.67;;;23.96;42.74
76827;BME280;65788;52.284;20.890;2023-07-09T06:55:51;100954.43;;;24.04;42.87
76827;BME280;65788;52.284;20.890;2023-07-09T06:58:28;100948.02;;;24.17;42.18
76827;BME280;65788;52.284;20.890;2023-07-09T07:00:55;100953.63;;;24.26;41.60
76827;BME280;65788;52.284;20.890;2023-07-09T07:03:22;100952.73;;;24.20;41.53
76827;BME280;65788;52.284;20.890;2023-07-09T07:05:51;100953.71;;;24.21;41.57
76827;BME280;65788;52.284;20.890;2023-07-09T07:08:23;100952.77;;;24.30;42.37
76827;BME280;65788;52.284;20.890;2023-07-09T07:10:56;100951.23;;;24.39;42.78
76827;BME280;65788;52.284;20.890;2023-07-09T07:13:30;100952.95;;;24.45;42.55
76827;BME280;65788;52.284;20.890;2023-07-09T07:15:57;100959.40;;;24.38;42.36
76827;BME280;65788;52.284;20.890;2023-07-09T07:18:25;100956.39;;;24.23;42.58
76827;BME280;65788;52.284;20.890;2023-07-09T07:20:52;100957.30;;;24.30;42.80
76827;BME280;65788;52.284;20.890;2023-07-09T07:23:19;100956.48;;;24.33;42.69
76827;BME280;65788;52.284;20.890;2023-07-09T07:25:46;100954.45;;;23.97;42.48
76827;BME280;65788;52.284;20.890;2023-07-09T07:28:14;100949.23;;;23.90;42.90
76827;BME280;65788;52.284;20.890;2023-07-09T07:30:45;100945.49;;;24.23;42.97
76827;BME280;65788;52.284;20.890;2023-07-09T07:33:14;100948.09;;;24.40;42.83
76827;BME280;65788;52.284;20.890;2023-07-09T07:35:42;100949.78;;;24.44;42.73
76827;BME280;65788;52.284;20.890;2023-07-09T07:38:09;100945.81;;;24.37;41.93
76827;BME280;65788;52.284;20.890;2023-07-09T07:40:37;100940.13;;;24.35;42.17
76827;BME280;65788;52.284;20.890;2023-07-09T07:43:04;100933.91;;;24.46;41.86
76827;BME280;65788;52.284;20.890;2023-07-09T07:45:31;100933.77;;;24.53;41.59
76827;BME280;65788;52.284;20.890;2023-07-09T07:48:03;100931.50;;;24.55;41.36
76827;BME280;65788;52.284;20.890;2023-07-09T07:50:32;100929.25;;;24.57;41.14
76827;BME280;65788;52.284;20.890;2023-07-09T07:52:58;100930.11;;;24.57;40.80
76827;BME280;65788;52.284;20.890;2023-07-09T07:55:25;100934.36;;;24.42;40.27
76827;BME280;65788;52.284;20.890;2023-07-09T07:57:52;100930.91;;;24.50;40.51
76827;BME280;65788;52.284;20.890;2023-07-09T08:00:19;100932.02;;;24.50;40.21
76827;BME280;65788;52.284;20.890;2023-07-09T08:02:47;100927.66;;;24.57;40.36
76827;BME280;65788;52.284;20.890;2023-07-09T08:05:14;100926.02;;;24.51;39.74
76827;BME280;65788;52.284;20.890;2023-07-09T08:07:41;100927.35;;;24.48;40.00
76827;BME280;65788;52.284;20.890;2023-07-09T08:10:08;100929.64;;;24.39;39.52
76827;BME280;65788;52.284;20.890;2023-07-09T08:12:38;100931.13;;;24.26;39.37
76827;BME280;65788;52.284;20.890;2023-07-09T08:15:06;100934.58;;;24.23;39.21
76827;BME280;65788;52.284;20.890;2023-07-09T08:17:33;100931.95;;;24.30;39.72
76827;BME280;65788;52.284;20.890;2023-07-09T08:20:00;100927.80;;;24.43;39.60
76827;BME280;65788;52.284;20.890;2023-07-09T08:22:27;100931.83;;;24.41;38.58
76827;BME280;65788;52.284;20.890;2023-07-09T08:24:54;100936.65;;;24.30;38.48
76827;BME280;65788;52.284;20.890;2023-07-09T08:27:21;100934.70;;;24.25;37.91
76827;BME280;65788;52.284;20.890;2023-07-09T08:29:48;100937.88;;;24.27;38.25
76827;BME280;65788;52.284;20.890;2023-07-09T08:32:15;100940.09;;;24.48;38.80
76827;BME280;65788;52.284;20.890;2023-07-09T08:34:42;100938.29;;;24.57;38.68
76827;BME280;65788;52.284;20.890;2023-07-09T08:37:09;100941.04;;;24.61;38.56
76827;BME280;65788;52.284;20.890;2023-07-09T08:39:36;100936.59;;;24.69;38.83
76827;BME280;65788;52.284;20.890;2023-07-09T08:42:11;100932.13;;;24.70;38.26
76827;BME280;65788;52.284;20.890;2023-07-09T08:47:52;100926.13;;;25.01;37.47
76827;BME280;65788;52.284;20.890;2023-07-09T08:50:40;100926.06;;;25.39;37.39
76827;BME280;65788;52.284;20.890;2023-07-09T08:53:27;100921.95;;;25.56;37.05
76827;BME280;65788;52.284;20.890;2023-07-09T08:55:55;100920.27;;;25.56;36.50
76827;BME280;65788;52.284;20.890;2023-07-09T08:58:28;100920.01;;;25.47;36.30
76827;BME280;65788;52.284;20.890;2023-07-09T09:00:57;100920.68;;;25.50;36.63
76827;BME280;65788;52.284;20.890;2023-07-09T09:05:59;100924.73;;;25.70;35.27
76827;BME280;65788;52.284;20.890;2023-07-09T09:11:04;100927.94;;;25.89;34.72
76827;BME280;65788;52.284;20.890;2023-07-09T09:13:35;100928.55;;;25.76;34.17
76827;BME280;65788;52.284;20.890;2023-07-09T09:16:09;100921.66;;;25.89;34.66
76827;BME280;65788;52.284;20.890;2023-07-09T09:18:41;100911.45;;;25.86;35.33
76827;BME280;65788;52.284;20.890;2023-07-09T09:21:25;100913.37;;;25.76;34.82
76827;BME280;65788;52.284;20.890;2023-07-09T09:23:57;100918.77;;;25.65;35.04
76827;BME280;65788;52.284;20.890;2023-07-09T09:26:32;100917.08;;;25.64;34.86
76827;BME280;65788;52.284;20.890;2023-07-09T09:29:00;100920.25;;;25.66;35.12
76827;BME280;65788;52.284;20.890;2023-07-09T09:31:28;100918.92;;;25.61;35.01
76827;BME280;65788;52.284;20.890;2023-07-09T09:33:56;100917.00;;;25.63;35.25
76827;BME280;65788;52.284;20.890;2023-07-09T09:36:25;100917.74;;;25.74;34.98
76827;BME280;65788;52.284;20.890;2023-07-09T09:38:53;100919.10;;;25.67;34.96
76827;BME280;65788;52.284;20.890;2023-07-09T09:41:22;100918.99;;;25.59;34.59
76827;BME280;65788;52.284;20.890;2023-07-09T09:43:52;100914.55;;;25.55;34.27
76827;BME280;65788;52.284;20.890;2023-07-09T09:46:25;100907.66;;;25.49;34.97
76827;BME280;65788;52.284;20.890;2023-07-09T09:48:58;100907.46;;;25.56;35.15
76827;BME280;65788;52.284;20.890;2023-07-09T09:51:26;100911.73;;;25.54;35.30
76827;BME280;65788;52.284;20.890;2023-07-09T09:54:01;100917.80;;;25.55;34.77
76827;BME280;65788;52.284;20.890;2023-07-09T09:56:30;100915.55;;;25.52;34.18
76827;BME280;65788;52.284;20.890;2023-07-09T09:58:58;100910.61;;;25.49;34.90
76827;BME280;65788;52.284;20.890;2023-07-09T10:01:32;100913.85;;;25.53;35.03
76827;BME280;65788;52.284;20.890;2023-07-09T10:04:03;100916.48;;;25.53;34.23
76827;BME280;65788;52.284;20.890;2023-07-09T10:06:43;100919.48;;;25.48;34.63
76827;BME280;65788;52.284;20.890;2023-07-09T10:09:38;100915.75;;;25.49;34.87
76827;BME280;65788;52.284;20.890;2023-07-09T10:14:51;100909.05;;;25.55;35.01
76827;BME280;65788;52.284;20.890;2023-07-09T10:17:46;100910.20;;;25.52;34.87
76827;BME280;65788;52.284;20.890;2023-07-09T10:20:36;100909.36;;;25.53;35.22
76827;BME280;65788;52.284;20.890;2023-07-09T10:23:25;100913.98;;;25.64;35.04
76827;BME280;65788;52.284;20.890;2023-07-09T10:26:11;100910.48;;;25.65;34.61
76827;BME280;65788;52.284;20.890;2023-07-09T10:31:40;100898.34;;;25.70;33.97
76827;BME280;65788;52.284;20.890;2023-07-09T10:39:36;100897.00;;;25.76;33.89
76827;BME280;65788;52.284;20.890;2023-07-09T10:42:07;100898.05;;;25.72;34.15
76827;BME280;65788;52.284;20.890;2023-07-09T10:44:41;100897.42;;;25.71;34.04
76827;BME280;65788;52.284;20.890;2023-07-09T10:47:28;100894.17;;;25.75;33.69
76827;BME280;65788;52.284;20.890;2023-07-09T10:49:58;100891.41;;;25.82;33.49
76827;BME280;65788;52.284;20.890;2023-07-09T10:52:34;100887.17;;;25.77;33.96
76827;BME280;65788;52.284;20.890;2023-07-09T10:55:04;100882.59;;;25.70;34.10
76827;BME280;65788;52.284;20.890;2023-07-09T11:00:11;100876.05;;;25.74;33.83
76827;BME280;65788;52.284;20.890;2023-07-09T11:02:42;100876.75;;;25.86;33.44
76827;BME280;65788;52.284;20.890;2023-07-09T11:05:13;100878.33;;;25.80;33.78
76827;BME280;65788;52.284;20.890;2023-07-09T11:08:08;100881.75;;;25.77;33.97
76827;BME280;65788;52.284;20.890;2023-07-09T11:10:41;100885.25;;;25.82;33.76
76827;BME280;65788;52.284;20.890;2023-07-09T11:13:24;100882.81;;;25.90;32.82
76827;BME280;65788;52.284;20.890;2023-07-09T11:15:55;100884.52;;;25.98;32.78
76827;BME280;65788;52.284;20.890;2023-07-09T11:18:25;100881.07;;;26.00;32.87
76827;BME280;65788;52.284;20.890;2023-07-09T11:21:19;100879.26;;;26.02;32.69
76827;BME280;65788;52.284;20.890;2023-07-09T11:23:51;100886.84;;;25.93;33.07
76827;BME280;65788;52.284;20.890;2023-07-09T11:26:23;100883.05;;;25.94;32.98
76827;BME280;65788;52.284;20.890;2023-07-09T11:29:35;100882.67;;;25.92;33.26
76827;BME280;65788;52.284;20.890;2023-07-09T11:31:45;100883.05;;;25.91;32.88
76827;BME280;65788;52.284;20.890;2023-07-09T11:39:46;100881.70;;;26.05;32.52
76827;BME280;65788;52.284;20.890;2023-07-09T11:42:31;100875.03;;;26.04;32.88
76827;BME280;65788;52.284;20.890;2023-07-09T11:45:06;100874.62;;;25.97;33.33
76827;BME280;65788;52.284;20.890;2023-07-09T11:47:43;100874.93;;;26.11;32.61
76827;BME280;65788;52.284;20.890;2023-07-09T11:53:03;100875.54;;;26.32;31.56
76827;BME280;65788;52.284;20.890;2023-07-09T11:55:44;100880.16;;;26.41;31.02
76827;BME280;65788;52.284;20.890;2023-07-09T11:58:13;100881.33;;;26.45;30.79
76827;BME280;65788;52.284;20.890;2023-07-09T12:00:52;100876.52;;;26.30;31.49
76827;BME280;65788;52.284;20.890;2023-07-09T12:03:25;100865.58;;;26.23;31.95
76827;BME280;65788;52.284;20.890;2023-07-09T12:06:00;100867.66;;;26.23;32.09
76827;BME280;65788;52.284;20.890;2023-07-09T12:10:59;100863.02;;;26.21;32.16
76827;BME280;65788;52.284;20.890;2023-07-09T12:13:26;100862.66;;;26.19;32.23
76827;BME280;65788;52.284;20.890;2023-07-09T12:15:53;100856.73;;;26.20;32.00
76827;BME280;65788;52.284;20.890;2023-07-09T12:18:19;100852.44;;;26.18;31.73
76827;BME280;65788;52.284;20.890;2023-07-09T12:20:51;100844.99;;;26.22;31.60
76827;BME280;65788;52.284;20.890;2023-07-09T12:25:52;100841.85;;;26.16;32.47
76827;BME280;65788;52.284;20.890;2023-07-09T12:28:21;100843.16;;;26.13;32.13
76827;BME280;65788;52.284;20.890;2023-07-09T12:30:50;100843.07;;;26.25;31.48
76827;BME280;65788;52.284;20.890;2023-07-09T12:33:19;100842.27;;;26.36;31.23
76827;BME280;65788;52.284;20.890;2023-07-09T12:35:51;100844.52;;;26.26;31.88
76827;BME280;65788;52.284;20.890;2023-07-09T12:38:22;100841.11;;;26.22;32.21
76827;BME280;65788;52.284;20.890;2023-07-09T12:40:50;100835.80;;;26.27;32.36
76827;BME280;65788;52.284;20.890;2023-07-09T12:43:24;100839.63;;;26.28;32.14
76827;BME280;65788;52.284;20.890;2023-07-09T12:45:57;100839.21;;;26.27;32.40
76827;BME280;65788;52.284;20.890;2023-07-09T12:48:26;100844.34;;;26.33;32.75
76827;BME280;65788;52.284;20.890;2023-07-09T12:50:58;100839.81;;;26.38;32.61
76827;BME280;65788;52.284;20.890;2023-07-09T12:53:27;100839.45;;;26.40;32.55
76827;BME280;65788;52.284;20.890;2023-07-09T12:55:56;100834.44;;;26.42;32.56
76827;BME280;65788;52.284;20.890;2023-07-09T12:58:28;100840.14;;;26.45;32.64
76827;BME280;65788;52.284;20.890;2023-07-09T13:00:57;100833.67;;;26.45;32.65
76827;BME280;65788;52.284;20.890;2023-07-09T13:03:25;100835.09;;;26.42;32.87
76827;BME280;65788;52.284;20.890;2023-07-09T13:06:01;100831.88;;;26.42;33.39
76827;BME280;65788;52.284;20.890;2023-07-09T13:08:40;100836.11;;;26.43;33.55
76827;BME280;65788;52.284;20.890;2023-07-09T13:11:17;100841.94;;;26.42;33.56
76827;BME280;65788;52.284;20.890;2023-07-09T13:13:59;100839.35;;;26.41;33.78
76827;BME280;65788;52.284;20.890;2023-07-09T13:16:28;100836.25;;;26.42;33.96
76827;BME280;65788;52.284;20.890;2023-07-09T13:18:55;100831.02;;;26.44;33.86
76827;BME280;65788;52.284;20.890;2023-07-09T13:21:24;100831.63;;;26.44;33.55
76827;BME280;65788;52.284;20.890;2023-07-09T13:23:52;100828.88;;;26.43;33.57
76827;BME280;65788;52.284;20.890;2023-07-09T13:26:20;100831.96;;;26.42;33.73
76827;BME280;65788;52.284;20.890;2023-07-09T13:28:47;100820.25;;;26.44;33.97
76827;BME280;65788;52.284;20.890;2023-07-09T13:31:20;100828.90;;;26.48;33.94
76827;BME280;65788;52.284;20.890;2023-07-09T13:33:54;100825.80;;;26.56;33.77